Etusivu
METAR-TAF:

METAR-TAF

Lentoasemat :

Chōfun lentoasema

Chōfu, Japani

Leveyspiiri: 35-40N, Pituuspiiri: 139-32E, korkeus merenpinnasta: 41 m

Tämänhetkinen sää

Tämä raportti tehtiin 2 tuntia ja 47 minuuttia sitten, kello 07.00 UTC
Tuuli 9 kn pohjoisesta
Lämpötila 14°C
Kosteus 72%
Ilmanpaine 999 hPa
Näkyvyys 10 km tai enemmän
Muutamia pilviä 1500 ft:n korkeudessa
Hajanaisia pilviä 2500 ft:n korkeudessa

METAR: RJTF 170700Z 01009KT 9999 FEW015 SCT025 14/09 Q0999

Aika: 18:47 (09:47 UTC)


TAF: puuttuu

Säähavainnot ja -ennusteet yli 4000 lentoasemalta (METAR- ja TAF-raportit).

Käytössä olevat sääasemat on merkitty karttaan keltaisilla ja punaisilla pisteillä.

Aseta hiiri pisteen päälle nähdäksesi sääaseman nimen.

Klikkaa sitten nähdäksesi säähavainnot ja -ennusteet.

Kartan vaihtaminen: klikkaa mustalla rastilla varustettuja vihreitä pisteitä, niin voit zoomata sisään; viivalla varustettua vihreää pistettä, niin voit zoomata ulos tai vihreitä nuolia, niin pääset viereisille kartoille.


METAR-TAF: